createdAt,value
2018-09-13T00:02:14.372Z,9.90
2018-09-13T00:04:52.145Z,13.83
2018-09-13T00:07:25.012Z,15.13
2018-09-13T00:09:59.293Z,12.60
2018-09-13T00:12:35.965Z,9.03
2018-09-13T00:15:08.553Z,12.27
2018-09-13T00:17:40.287Z,7.67
2018-09-13T00:20:12.877Z,12.50
2018-09-13T00:22:46.918Z,13.13
2018-09-13T00:25:20.080Z,18.10
2018-09-13T00:27:52.872Z,14.83
2018-09-13T00:30:27.794Z,8.17
2018-09-13T00:33:01.477Z,9.00
2018-09-13T00:35:34.785Z,14.43
2018-09-13T00:38:08.932Z,11.60
2018-09-13T00:40:41.988Z,11.00
2018-09-13T00:43:17.441Z,8.87
2018-09-13T00:45:52.041Z,14.93
2018-09-13T00:48:29.653Z,18.63
2018-09-13T00:51:03.742Z,8.40
2018-09-13T00:53:36.839Z,11.23
2018-09-13T00:56:10.000Z,11.03
2018-09-13T00:58:44.752Z,30.03
2018-09-13T01:01:18.927Z,17.43
2018-09-13T01:03:55.003Z,10.23
2018-09-13T01:06:28.348Z,19.60
2018-09-13T01:09:01.931Z,19.80
2018-09-13T01:11:34.773Z,13.50
2018-09-13T01:14:08.689Z,18.43
2018-09-13T01:16:42.327Z,10.97
2018-09-13T01:19:15.323Z,16.13
2018-09-13T01:21:50.357Z,7.57
2018-09-13T01:24:23.858Z,8.17
2018-09-13T01:26:56.765Z,8.60
2018-09-13T01:29:29.833Z,13.53
2018-09-13T01:32:03.314Z,11.50
2018-09-13T01:34:37.881Z,11.53
2018-09-13T01:37:11.494Z,9.77
2018-09-13T01:39:45.032Z,9.90
2018-09-13T01:42:21.186Z,10.67
2018-09-13T01:44:52.507Z,10.80
2018-09-13T01:47:25.818Z,14.83
2018-09-13T01:49:57.110Z,9.90
2018-09-13T01:52:28.884Z,9.67
2018-09-13T01:55:01.420Z,10.80
2018-09-13T01:57:34.301Z,14.07
2018-09-13T02:00:09.346Z,7.93
2018-09-13T02:02:44.759Z,10.70
2018-09-13T02:05:18.180Z,11.27
2018-09-13T02:07:54.569Z,13.43
2018-09-13T02:10:27.683Z,10.07
2018-09-13T02:13:01.768Z,10.67
2018-09-13T02:15:37.681Z,12.87
2018-09-13T02:18:10.732Z,10.33
2018-09-13T02:20:44.119Z,9.40
2018-09-13T02:23:17.853Z,6.30
2018-09-13T02:25:51.204Z,11.33
2018-09-13T02:28:25.131Z,8.20
2018-09-13T02:30:58.277Z,12.60
2018-09-13T02:33:32.293Z,11.37
2018-09-13T02:36:06.361Z,19.10
2018-09-13T02:38:46.208Z,9.17
2018-09-13T02:41:21.162Z,11.70
2018-09-13T02:43:56.697Z,10.00
2018-09-13T02:46:32.297Z,10.70
2018-09-13T02:49:07.949Z,7.93
2018-09-13T02:51:46.083Z,13.00
2018-09-13T02:54:19.384Z,14.90
2018-09-13T02:56:52.673Z,7.53
2018-09-13T02:59:26.533Z,14.20
2018-09-13T03:02:00.654Z,8.37
2018-09-13T03:04:33.677Z,15.03
2018-09-13T03:07:06.843Z,8.93
2018-09-13T03:09:39.606Z,13.90
2018-09-13T03:12:12.605Z,27.17
2018-09-13T03:14:46.571Z,8.90
2018-09-13T03:17:21.173Z,11.83
2018-09-13T03:19:53.985Z,13.70
2018-09-13T03:22:28.352Z,10.20
2018-09-13T03:25:02.772Z,17.83
2018-09-13T03:27:36.504Z,10.17
2018-09-13T03:30:10.537Z,12.23
2018-09-13T03:32:44.429Z,12.77
2018-09-13T03:35:18.728Z,14.73
2018-09-13T03:37:51.454Z,11.70
2018-09-13T03:40:25.775Z,15.07
2018-09-13T03:42:59.725Z,14.95
2018-09-13T03:45:33.840Z,18.03
2018-09-13T03:48:07.545Z,19.33
2018-09-13T03:50:41.821Z,18.50
2018-09-13T03:53:14.953Z,20.13
2018-09-13T03:55:48.929Z,18.63
2018-09-13T03:58:23.222Z,20.70
2018-09-13T04:00:56.497Z,24.03
2018-09-13T04:03:30.529Z,22.67
2018-09-13T04:06:03.876Z,18.33
2018-09-13T04:08:37.954Z,16.93
2018-09-13T04:11:10.727Z,28.15
2018-09-13T04:13:44.707Z,14.60
2018-09-13T04:16:18.416Z,23.03
2018-09-13T04:18:47.548Z,26.20
2018-09-13T04:21:16.499Z,18.02
2018-09-13T04:23:45.710Z,19.07
2018-09-13T04:26:14.890Z,14.27
2018-09-13T04:28:44.100Z,16.13
2018-09-13T04:31:13.114Z,16.27
2018-09-13T04:33:42.489Z,25.40
2018-09-13T04:36:11.751Z,15.50
2018-09-13T04:38:40.778Z,24.20
2018-09-13T04:41:10.122Z,20.47
2018-09-13T04:43:39.325Z,16.05
2018-09-13T04:46:08.169Z,26.33
2018-09-13T04:48:38.330Z,20.90
2018-09-13T04:51:07.344Z,29.87
2018-09-13T04:53:36.207Z,17.13
2018-09-13T04:56:05.251Z,16.97
2018-09-13T04:58:34.303Z,20.15
2018-09-13T05:01:03.219Z,18.50
2018-09-13T05:03:32.130Z,25.10
2018-09-13T05:06:01.138Z,15.60
2018-09-13T05:08:30.031Z,18.63
2018-09-13T05:10:58.827Z,20.43
2018-09-13T05:13:27.602Z,16.70
2018-09-13T05:15:56.536Z,18.80
2018-09-13T05:18:25.363Z,18.87
2018-09-13T05:20:54.054Z,18.40
2018-09-13T05:23:22.891Z,31.87
2018-09-13T05:25:51.730Z,30.60
2018-09-13T05:28:20.600Z,27.00
2018-09-13T05:30:49.455Z,25.20
2018-09-13T05:33:23.015Z,19.00
2018-09-13T05:35:56.561Z,17.53
2018-09-13T05:38:29.801Z,27.50
2018-09-13T05:41:03.573Z,18.00
2018-09-13T05:43:36.881Z,19.40
2018-09-13T05:46:09.591Z,28.33
2018-09-13T05:48:43.565Z,35.10
2018-09-13T05:51:18.088Z,35.00
2018-09-13T05:53:51.444Z,17.83
2018-09-13T05:56:24.274Z,24.87
2018-09-13T05:58:55.185Z,21.17
2018-09-13T06:01:28.957Z,23.50
2018-09-13T06:04:01.567Z,34.93
2018-09-13T06:06:34.742Z,29.73
2018-09-13T06:09:10.100Z,23.93
2018-09-13T06:11:43.898Z,30.97
2018-09-13T06:14:18.770Z,25.70
2018-09-13T06:16:51.609Z,26.13
2018-09-13T06:19:24.437Z,22.52
2018-09-13T06:22:01.243Z,19.60
2018-09-13T06:24:32.776Z,32.27
2018-09-13T06:27:05.156Z,45.43
2018-09-13T06:29:36.999Z,22.87
2018-09-13T06:32:09.050Z,20.87
2018-09-13T06:34:41.540Z,26.10
2018-09-13T06:37:10.374Z,18.60
2018-09-13T06:39:39.239Z,17.73
2018-09-13T06:42:08.053Z,38.17
2018-09-13T06:44:37.060Z,30.10
2018-09-13T06:47:07.394Z,34.80
2018-09-13T06:49:36.399Z,39.40
2018-09-13T06:52:05.378Z,16.90
2018-09-13T06:54:34.163Z,24.13
2018-09-13T06:57:03.072Z,21.07
2018-09-13T06:59:32.604Z,28.27
2018-09-13T07:02:02.178Z,33.03
2018-09-13T07:04:33.216Z,22.00
2018-09-13T07:07:11.052Z,30.80
2018-09-13T07:09:39.824Z,29.50
2018-09-13T07:12:08.581Z,39.77
2018-09-13T07:14:37.465Z,26.90
2018-09-13T07:17:06.386Z,30.50
2018-09-13T07:19:35.354Z,26.17
2018-09-13T07:22:05.046Z,18.93
2018-09-13T07:24:36.169Z,20.93
2018-09-13T07:27:06.105Z,35.47
2018-09-13T07:29:36.385Z,30.60
2018-09-13T07:32:08.919Z,34.20
2018-09-13T07:34:40.147Z,35.90
2018-09-13T07:37:18.329Z,36.60
2018-09-13T07:39:50.499Z,32.53
2018-09-13T07:42:19.619Z,24.83
2018-09-13T07:44:49.879Z,40.80
2018-09-13T07:47:20.098Z,19.53
2018-09-13T07:49:49.899Z,16.70
2018-09-13T07:52:18.955Z,18.07
2018-09-13T07:54:48.699Z,49.23
2018-09-13T07:57:18.499Z,26.63
2018-09-13T07:59:48.268Z,23.73
2018-09-13T08:02:24.432Z,21.63
2018-09-13T08:04:56.642Z,21.40
2018-09-13T08:07:25.972Z,26.30
2018-09-13T08:09:55.370Z,13.40
2018-09-13T08:12:25.141Z,28.93
2018-09-13T08:14:55.505Z,36.03
2018-09-13T08:17:26.889Z,20.50
2018-09-13T08:19:57.798Z,26.03
2018-09-13T08:22:28.857Z,22.40
2018-09-13T08:24:59.729Z,18.00
2018-09-13T08:27:31.113Z,25.33
2018-09-13T08:30:01.856Z,22.50
2018-09-13T08:32:35.642Z,24.00
2018-09-13T08:35:07.151Z,22.27
2018-09-13T08:37:37.735Z,21.37
2018-09-13T08:40:07.061Z,28.20
2018-09-13T08:42:36.846Z,20.10
2018-09-13T08:45:07.988Z,20.90
2018-09-13T08:47:37.567Z,29.07
2018-09-13T08:50:06.551Z,28.50
2018-09-13T08:52:35.460Z,28.40
2018-09-13T08:55:04.426Z,40.37
2018-09-13T08:57:33.269Z,23.60
2018-09-13T09:00:02.210Z,21.40
2018-09-13T09:02:32.302Z,57.47
2018-09-13T09:05:01.240Z,36.43
2018-09-13T09:07:30.063Z,14.43
2018-09-13T09:09:58.951Z,22.53
2018-09-13T09:12:27.812Z,26.10
2018-09-13T09:14:56.680Z,18.47
2018-09-13T09:17:26.697Z,16.10
2018-09-13T09:19:55.871Z,23.17
2018-09-13T09:22:25.284Z,21.23
2018-09-13T09:24:54.860Z,27.43
2018-09-13T09:27:23.807Z,15.60
2018-09-13T09:29:52.784Z,17.67
2018-09-13T09:32:21.726Z,21.13
2018-09-13T09:34:50.726Z,19.20
2018-09-13T09:37:19.565Z,25.33
2018-09-13T09:39:48.377Z,20.33
2018-09-13T09:42:17.197Z,12.97
2018-09-13T09:44:46.127Z,12.00
2018-09-13T09:47:15.022Z,15.47
2018-09-13T09:49:43.920Z,11.90
2018-09-13T09:52:12.911Z,11.73
2018-09-13T09:54:42.293Z,12.17
2018-09-13T09:57:11.568Z,14.07
2018-09-13T09:59:40.453Z,14.20
2018-09-13T10:02:15.333Z,14.53
2018-09-13T10:04:49.979Z,12.77
2018-09-13T10:07:21.427Z,17.33
2018-09-13T10:09:53.456Z,22.70
2018-09-13T10:12:22.328Z,13.50
2018-09-13T10:14:56.407Z,17.17
2018-09-13T10:17:30.842Z,20.00
2018-09-13T10:20:04.984Z,20.63
2018-09-13T10:22:39.303Z,30.13
2018-09-13T10:25:13.716Z,25.43
2018-09-13T10:27:48.125Z,17.70
2018-09-13T10:30:22.345Z,21.40
2018-09-13T10:33:00.942Z,14.97
2018-09-13T10:35:35.245Z,11.93
2018-09-13T10:38:09.609Z,16.57
2018-09-13T10:40:43.999Z,21.47
2018-09-13T10:43:18.302Z,10.03
2018-09-13T10:45:52.314Z,15.00
2018-09-13T10:48:29.796Z,10.77
2018-09-13T10:51:04.071Z,15.50
2018-09-13T10:53:38.336Z,18.80
2018-09-13T10:56:07.918Z,11.33
2018-09-13T10:58:37.149Z,18.53
2018-09-13T11:01:07.004Z,17.40
2018-09-13T11:03:36.100Z,10.90
2018-09-13T11:06:05.246Z,12.77
2018-09-13T11:08:34.255Z,20.40
2018-09-13T11:11:03.241Z,12.90
2018-09-13T11:13:39.849Z,11.13
2018-09-13T11:16:09.005Z,10.10
2018-09-13T11:18:37.810Z,14.73
2018-09-13T11:21:06.772Z,13.23
2018-09-13T11:23:36.829Z,11.47
2018-09-13T11:26:05.893Z,13.70
2018-09-13T11:28:35.145Z,20.63
2018-09-13T11:31:05.135Z,24.20
2018-09-13T11:33:35.721Z,14.03
2018-09-13T11:36:06.109Z,12.43
2018-09-13T11:38:35.035Z,18.90
2018-09-13T11:41:04.634Z,13.23
2018-09-13T11:43:33.670Z,15.33
2018-09-13T11:46:02.837Z,22.77
2018-09-13T11:48:31.656Z,18.63
2018-09-13T11:51:00.537Z,11.70
2018-09-13T11:53:29.855Z,8.83
2018-09-13T11:55:58.883Z,16.90
2018-09-13T11:58:27.898Z,8.70
2018-09-13T12:00:57.014Z,28.40
2018-09-13T12:03:25.883Z,9.60
2018-09-13T12:05:54.655Z,10.90
2018-09-13T12:08:24.843Z,23.20
2018-09-13T12:10:53.734Z,8.03
2018-09-13T12:13:22.723Z,8.87
2018-09-13T12:15:52.414Z,12.17
2018-09-13T12:18:21.359Z,7.60
2018-09-13T12:20:51.791Z,16.63
2018-09-13T12:23:21.940Z,8.00
2018-09-13T12:25:52.463Z,11.23
2018-09-13T12:28:23.633Z,11.70
2018-09-13T12:30:53.731Z,13.37
2018-09-13T12:33:22.722Z,14.10
2018-09-13T12:35:52.166Z,14.43
2018-09-13T12:38:21.009Z,13.40
2018-09-13T12:40:49.845Z,13.63
2018-09-13T12:43:18.789Z,11.93
2018-09-13T12:45:47.678Z,9.67
2018-09-13T12:48:18.214Z,14.73
2018-09-13T12:50:48.367Z,10.50
2018-09-13T12:53:19.826Z,13.53
2018-09-13T12:55:57.109Z,21.47
2018-09-13T12:58:27.973Z,18.27
2018-09-13T13:00:59.971Z,20.00
2018-09-13T13:03:31.481Z,21.50
2018-09-13T13:06:02.892Z,12.40
2018-09-13T13:08:36.033Z,17.40
2018-09-13T13:11:05.018Z,17.57
2018-09-13T13:13:33.790Z,12.03
2018-09-13T13:16:02.703Z,14.33
2018-09-13T13:18:31.524Z,15.60
2018-09-13T13:21:00.382Z,18.13
2018-09-13T13:23:29.121Z,20.43
2018-09-13T13:25:57.940Z,9.10
2018-09-13T13:28:32.637Z,17.10
2018-09-13T13:31:01.678Z,22.60
2018-09-13T13:33:31.013Z,16.70
2018-09-13T13:35:59.766Z,8.80
2018-09-13T13:38:31.734Z,20.90
2018-09-13T13:41:01.065Z,16.03
2018-09-13T13:43:30.150Z,11.47
2018-09-13T13:45:59.091Z,11.57
2018-09-13T13:48:28.157Z,14.27
2018-09-13T13:50:57.072Z,14.40
2018-09-13T13:53:25.984Z,17.30
2018-09-13T13:55:54.844Z,23.50
2018-09-13T13:58:23.684Z,10.77
2018-09-13T14:00:52.808Z,15.40
2018-09-13T14:03:21.716Z,11.90
2018-09-13T14:05:50.857Z,19.60
2018-09-13T14:08:19.909Z,18.53
2018-09-13T14:10:48.796Z,27.20
2018-09-13T14:13:17.899Z,29.80
2018-09-13T14:15:46.975Z,16.53
2018-09-13T14:18:16.071Z,12.67
2018-09-13T14:20:45.377Z,20.97
2018-09-13T14:23:14.330Z,27.40
2018-09-13T14:25:43.293Z,19.80
2018-09-13T14:28:12.673Z,21.57
2018-09-13T14:30:41.674Z,16.00
2018-09-13T14:33:10.794Z,23.47
2018-09-13T14:35:39.744Z,17.93
2018-09-13T14:38:08.741Z,22.30
2018-09-13T14:40:37.558Z,16.43
2018-09-13T14:43:06.995Z,16.83
2018-09-13T14:45:35.888Z,20.03
2018-09-13T14:48:05.314Z,11.23
2018-09-13T14:50:34.587Z,18.60
2018-09-13T14:53:03.528Z,14.17
2018-09-13T14:55:32.388Z,14.77
2018-09-13T14:58:01.226Z,18.87
2018-09-13T15:00:30.111Z,11.73
2018-09-13T15:02:59.344Z,14.87
2018-09-13T15:05:28.287Z,12.60
2018-09-13T15:07:58.173Z,26.10
2018-09-13T15:10:27.302Z,13.60
2018-09-13T15:12:56.285Z,14.53
2018-09-13T15:15:25.495Z,20.20
2018-09-13T15:17:54.440Z,20.93
2018-09-13T15:20:26.060Z,18.60
2018-09-13T15:22:58.099Z,16.03
2018-09-13T15:25:27.284Z,18.73
2018-09-13T15:27:56.227Z,14.13
2018-09-13T15:30:25.100Z,18.33
2018-09-13T15:32:53.842Z,16.87
2018-09-13T15:35:23.075Z,17.03
2018-09-13T15:37:52.582Z,15.50
2018-09-13T15:40:21.711Z,18.10
2018-09-13T15:42:50.655Z,20.07
2018-09-13T15:45:19.900Z,16.90
2018-09-13T15:47:49.186Z,26.53
2018-09-13T15:50:18.098Z,20.83
2018-09-13T15:52:47.092Z,16.67
2018-09-13T15:55:16.066Z,24.40
2018-09-13T15:57:44.944Z,15.73
2018-09-13T16:00:13.737Z,27.60
2018-09-13T16:02:42.597Z,21.67
2018-09-13T16:05:11.817Z,19.77
2018-09-13T16:07:40.649Z,39.77
2018-09-13T16:10:09.488Z,20.10
2018-09-13T16:12:38.558Z,23.33
2018-09-13T16:15:07.807Z,15.73
2018-09-13T16:17:36.835Z,27.70
2018-09-13T16:20:05.890Z,17.33
2018-09-13T16:22:34.830Z,18.97
2018-09-13T16:25:03.788Z,14.47
2018-09-13T16:27:32.594Z,16.63
2018-09-13T16:30:01.913Z,23.93
2018-09-13T16:32:30.990Z,18.17
2018-09-13T16:35:00.454Z,18.43
2018-09-13T16:37:34.473Z,27.13
2018-09-13T16:40:10.532Z,22.93
2018-09-13T16:42:51.966Z,19.07
2018-09-13T16:45:22.135Z,15.10
2018-09-13T16:47:57.753Z,21.13
2018-09-13T16:50:26.478Z,28.10
2018-09-13T16:52:55.242Z,22.60
2018-09-13T16:55:24.104Z,21.10
2018-09-13T16:57:53.062Z,26.40
2018-09-13T17:00:23.554Z,23.37
2018-09-13T17:02:52.351Z,21.13
2018-09-13T17:05:21.240Z,22.87
2018-09-13T17:07:50.136Z,19.73
2018-09-13T17:10:18.930Z,22.80
2018-09-13T17:12:48.126Z,40.13
2018-09-13T17:15:16.989Z,25.47
2018-09-13T17:17:45.854Z,30.83
2018-09-13T17:20:14.699Z,32.63
2018-09-13T17:22:43.712Z,34.30
2018-09-13T17:25:12.458Z,30.30
2018-09-13T17:27:41.210Z,28.37
2018-09-13T17:30:10.072Z,32.50
2018-09-13T17:32:38.817Z,29.70
2018-09-13T17:35:07.799Z,39.17
2018-09-13T17:37:36.649Z,36.97
2018-09-13T17:40:05.473Z,31.57
2018-09-13T17:42:34.316Z,32.90
2018-09-13T17:45:03.116Z,29.03
2018-09-13T17:47:31.951Z,36.33
2018-09-13T17:50:00.940Z,39.80
2018-09-13T17:52:29.709Z,34.30
2018-09-13T17:54:58.473Z,36.47
2018-09-13T17:57:27.303Z,41.77
2018-09-13T17:59:56.037Z,33.27
2018-09-13T18:02:24.902Z,41.47
2018-09-13T18:04:53.673Z,32.70
2018-09-13T18:07:22.407Z,36.47
2018-09-13T18:09:51.121Z,35.30
2018-09-13T18:12:19.893Z,40.10
2018-09-13T18:14:48.613Z,43.40
2018-09-13T18:17:17.382Z,41.40
2018-09-13T18:19:46.122Z,30.73
2018-09-13T18:22:14.848Z,46.53
2018-09-13T18:24:43.614Z,41.63
2018-09-13T18:27:12.340Z,30.47
2018-09-13T18:29:41.079Z,44.90
2018-09-13T18:32:09.880Z,32.20
2018-09-13T18:34:38.644Z,34.83
2018-09-13T18:37:07.448Z,43.93
2018-09-13T18:39:36.270Z,38.60
2018-09-13T18:42:05.019Z,39.90
2018-09-13T18:44:33.736Z,33.00
2018-09-13T18:47:02.526Z,38.67
2018-09-13T18:49:31.272Z,38.50
2018-09-13T18:51:59.990Z,37.33
2018-09-13T18:54:28.727Z,41.97
2018-09-13T18:56:57.482Z,55.30
2018-09-13T18:59:26.319Z,35.10
2018-09-13T19:01:55.004Z,41.73
2018-09-13T19:04:23.797Z,42.63
2018-09-13T19:06:52.589Z,49.17
2018-09-13T19:09:21.346Z,41.50
2018-09-13T19:11:50.127Z,45.20
2018-09-13T19:14:18.833Z,41.80
2018-09-13T19:16:47.612Z,40.90
2018-09-13T19:19:16.337Z,48.13
2018-09-13T19:21:45.087Z,40.13
2018-09-13T19:24:13.930Z,38.37
2018-09-13T19:26:42.737Z,48.40
2018-09-13T19:29:11.600Z,41.90
2018-09-13T19:31:40.328Z,48.20
2018-09-13T19:34:09.100Z,43.73
2018-09-13T19:36:37.870Z,40.90
2018-09-13T19:39:09.338Z,38.20
2018-09-13T19:41:38.234Z,37.03
2018-09-13T19:44:07.089Z,42.73
2018-09-13T19:46:35.948Z,39.13
2018-09-13T19:49:04.747Z,41.60
2018-09-13T19:51:33.537Z,44.33
2018-09-13T19:54:02.319Z,44.63
2018-09-13T19:56:30.993Z,45.90
2018-09-13T19:58:59.711Z,48.70
2018-09-13T20:01:28.479Z,53.90
2018-09-13T20:04:03.380Z,51.13
2018-09-13T20:06:36.028Z,44.40
2018-09-13T20:09:07.162Z,46.17
2018-09-13T20:11:35.931Z,45.10
2018-09-13T20:14:04.830Z,60.03
2018-09-13T20:16:33.557Z,40.10
2018-09-13T20:19:02.384Z,45.47
2018-09-13T20:21:31.089Z,49.87
2018-09-13T20:23:59.837Z,40.43
2018-09-13T20:26:28.584Z,43.83
2018-09-13T20:28:57.425Z,46.17
2018-09-13T20:31:26.170Z,43.60
2018-09-13T20:33:54.965Z,43.73
2018-09-13T20:36:23.790Z,43.50
2018-09-13T20:38:52.634Z,47.63
2018-09-13T20:41:21.477Z,49.03
2018-09-13T20:43:50.279Z,44.80
2018-09-13T20:46:19.011Z,40.77
2018-09-13T20:48:47.965Z,44.93
2018-09-13T20:51:16.830Z,45.10
2018-09-13T20:53:45.553Z,44.73
2018-09-13T20:56:14.321Z,57.03
2018-09-13T20:58:43.041Z,43.30
2018-09-13T21:01:11.849Z,46.47
2018-09-13T21:03:40.622Z,34.70
2018-09-13T21:06:09.386Z,44.47
2018-09-13T21:08:38.153Z,44.43
2018-09-13T21:11:06.937Z,50.23
2018-09-13T21:13:35.698Z,55.00
2018-09-13T21:16:04.505Z,47.10
2018-09-13T21:18:33.247Z,47.37
2018-09-13T21:21:02.026Z,45.17
2018-09-13T21:23:30.722Z,50.20
2018-09-13T21:25:59.463Z,44.17
2018-09-13T21:28:28.231Z,42.63
2018-09-13T21:30:56.999Z,39.23
2018-09-13T21:33:25.755Z,41.50
2018-09-13T21:35:54.496Z,36.83
2018-09-13T21:38:23.260Z,33.20
2018-09-13T21:40:51.965Z,39.33
2018-09-13T21:43:20.714Z,40.27
2018-09-13T21:45:49.449Z,37.83
2018-09-13T21:48:18.225Z,38.47
2018-09-13T21:50:47.047Z,40.30
2018-09-13T21:53:15.793Z,41.27
2018-09-13T21:55:44.553Z,40.27
2018-09-13T21:58:13.299Z,49.10
2018-09-13T22:00:42.066Z,46.73
2018-09-13T22:03:10.811Z,44.57
2018-09-13T22:05:39.614Z,52.70
2018-09-13T22:08:08.365Z,44.80
2018-09-13T22:10:37.110Z,50.53
2018-09-13T22:13:05.973Z,49.00
2018-09-13T22:15:34.661Z,45.07
2018-09-13T22:18:03.403Z,40.03
2018-09-13T22:20:32.212Z,42.70
2018-09-13T22:23:00.998Z,45.23
2018-09-13T22:25:29.756Z,45.05
2018-09-13T22:27:58.438Z,45.57
2018-09-13T22:30:27.179Z,41.80
2018-09-13T22:32:55.955Z,44.53
2018-09-13T22:35:24.757Z,44.53
2018-09-13T22:37:53.486Z,43.60
2018-09-13T22:40:22.211Z,46.73
2018-09-13T22:42:50.930Z,44.07
2018-09-13T22:45:19.671Z,46.43
2018-09-13T22:47:48.478Z,48.80
2018-09-13T22:50:17.186Z,46.90
2018-09-13T22:52:45.974Z,43.67
2018-09-13T22:55:14.692Z,48.37
2018-09-13T22:57:43.442Z,50.00
2018-09-13T23:00:12.256Z,46.43
2018-09-13T23:02:46.136Z,46.00
2018-09-13T23:05:14.872Z,50.87
2018-09-13T23:07:43.636Z,53.03
2018-09-13T23:10:12.399Z,51.83
2018-09-13T23:12:41.203Z,54.87
2018-09-13T23:15:09.972Z,46.18
2018-09-13T23:17:38.771Z,58.87
2018-09-13T23:20:07.525Z,66.63
2018-09-13T23:22:36.255Z,57.53
2018-09-13T23:25:05.090Z,57.78
2018-09-13T23:27:33.854Z,66.07
2018-09-13T23:30:02.617Z,56.53
2018-09-13T23:32:31.359Z,64.50
2018-09-13T23:35:00.196Z,65.85
2018-09-13T23:37:28.904Z,61.70
2018-09-13T23:39:57.817Z,70.22
2018-09-13T23:42:26.427Z,70.73
2018-09-13T23:44:55.185Z,59.77
2018-09-13T23:47:23.931Z,58.17
2018-09-13T23:49:52.989Z,80.70
2018-09-13T23:52:21.732Z,55.00
2018-09-13T23:54:50.462Z,57.87
2018-09-13T23:57:19.192Z,57.05
2018-09-13T23:59:48.067Z,47.57
